Time;durP1;ratioP1;P1;durP2;ratioP2;P2;SDS_P1;SDS_P2;PMS_P1;PMS_P2;Temp;Humidity;BMP_temperature;BMP_pressure;BME280_temperature;BME280_humidity;BME280_pressure;Samples;Min_cycle;Max_cycle;Signal;HPM_P1;HPM_P2
2023/09/24 00:00:26;;;;;;;8.02;3.53;;;;;;;;;;5029560;28;20018;-73
2023/09/24 00:02:51;;;;;;;12.65;4.15;;;;;;;;;;5030824;28;20031;-73
2023/09/24 00:05:16;;;;;;;11.30;3.53;;;;;;;;;;5031628;28;20025;-73
2023/09/24 00:07:41;;;;;;;8.25;3.60;;;;;;;;;;5033540;28;20380;-73
2023/09/24 00:10:07;;;;;;;10.82;3.45;;;;;;;;;;5034601;28;20663;-73
2023/09/24 00:12:32;;;;;;;14.93;4.18;;;;;;;;;;5032016;28;20029;-73
2023/09/24 00:14:57;;;;;;;8.87;4.13;;;;;;;;;;5032163;28;20093;-73
2023/09/24 00:17:22;;;;;;;12.27;3.67;;;;;;;;;;5027419;28;20790;-73
2023/09/24 00:19:47;;;;;;;6.90;3.85;;;;;;;;;;5033515;28;20024;-73
2023/09/24 00:22:13;;;;;;;10.63;3.73;;;;;;;;;;5032531;28;20025;-73
2023/09/24 00:24:38;;;;;;;5.90;3.15;;;;;;;;;;5037648;28;20263;-73
2023/09/24 00:27:04;;;;;;;11.25;3.88;;;;;;;;;;5029260;28;20029;-73
2023/09/24 00:29:29;;;;;;;10.02;4.15;;;;;;;;;;5033310;28;20472;-73
2023/09/24 00:31:54;;;;;;;10.15;3.60;;;;;;;;;;5033403;28;20025;-73
2023/09/24 00:34:19;;;;;;;10.87;4.20;;;;;;;;;;5026097;28;20017;-73
2023/09/24 00:36:45;;;;;;;14.32;3.78;;;;;;;;;;5028989;28;20296;-73
2023/09/24 00:39:10;;;;;;;10.10;4.18;;;;;;;;;;5032407;28;20017;-73
2023/09/24 00:41:36;;;;;;;7.85;3.00;;;;;;;;;;5036126;28;20095;-73
2023/09/24 00:44:01;;;;;;;5.45;2.97;;;;;;;;;;5031997;28;20159;-73
2023/09/24 00:46:27;;;;;;;4.97;3.50;;;;;;;;;;5031155;28;20017;-73
2023/09/24 00:48:52;;;;;;;9.27;4.47;;;;;;;;;;5025782;28;20060;-73
2023/09/24 00:51:21;;;;;;;11.10;3.40;;;;;;;;;;5032669;28;20037;-73
2023/09/24 00:53:47;;;;;;;12.73;3.97;;;;;;;;;;5035128;28;20488;-73
2023/09/24 00:56:13;;;;;;;11.20;3.70;;;;;;;;;;5029198;28;20097;-73
2023/09/24 00:58:39;;;;;;;5.88;3.05;;;;;;;;;;5028563;28;20488;-73
2023/09/24 01:01:06;;;;;;;13.48;3.17;;;;;;;;;;5026535;28;20140;-73
2023/09/24 01:03:31;;;;;;;9.23;3.53;;;;;;;;;;5029947;28;20115;-73
2023/09/24 01:05:57;;;;;;;11.02;3.75;;;;;;;;;;5031169;28;20493;-73
2023/09/24 01:08:23;;;;;;;11.75;3.17;;;;;;;;;;5033457;28;20025;-73
2023/09/24 01:10:49;;;;;;;7.63;3.13;;;;;;;;;;5026985;28;20099;-73
2023/09/24 01:13:21;;;;;;;14.75;3.75;;;;;;;;;;5032208;28;20136;-73
2023/09/24 01:15:48;;;;;;;5.45;3.03;;;;;;;;;;5031039;28;20128;-73
2023/09/24 01:18:13;;;;;;;7.53;2.88;;;;;;;;;;5027895;28;20026;-73
2023/09/24 01:20:40;;;;;;;5.95;3.20;;;;;;;;;;5031214;28;20025;-73
2023/09/24 01:23:06;;;;;;;11.02;2.83;;;;;;;;;;5040651;28;20021;-73
2023/09/24 01:25:37;;;;;;;7.03;3.80;;;;;;;;;;5039537;28;20044;-73
2023/09/24 01:28:03;;;;;;;12.43;3.40;;;;;;;;;;5034966;28;20512;-73
2023/09/24 01:30:29;;;;;;;9.27;3.28;;;;;;;;;;5030433;28;20056;-73
2023/09/24 01:32:54;;;;;;;8.73;3.13;;;;;;;;;;5029634;28;20649;-73
2023/09/24 01:35:25;;;;;;;5.82;2.75;;;;;;;;;;5029776;28;20037;-73
2023/09/24 01:37:52;;;;;;;6.57;2.88;;;;;;;;;;5033600;28;20013;-73
2023/09/24 01:40:21;;;;;;;9.13;3.35;;;;;;;;;;5041381;28;20510;-73
2023/09/24 01:42:47;;;;;;;7.05;3.22;;;;;;;;;;5029754;28;20037;-73
2023/09/24 01:45:13;;;;;;;5.85;3.13;;;;;;;;;;5038692;28;20109;-73
2023/09/24 01:47:38;;;;;;;5.47;2.58;;;;;;;;;;5037384;28;20018;-73
2023/09/24 01:50:08;;;;;;;6.28;3.42;;;;;;;;;;5032135;28;20028;-73
2023/09/24 01:52:34;;;;;;;7.78;2.90;;;;;;;;;;5038089;28;20013;-73
2023/09/24 01:54:59;;;;;;;6.70;2.75;;;;;;;;;;5033219;28;20032;-73
2023/09/24 01:57:25;;;;;;;10.68;3.58;;;;;;;;;;5027401;28;20079;-73
2023/09/24 01:59:50;;;;;;;5.73;3.10;;;;;;;;;;5031586;28;20056;-73
2023/09/24 02:02:15;;;;;;;5.67;2.97;;;;;;;;;;5040888;28;20276;-73
2023/09/24 02:04:41;;;;;;;5.90;3.63;;;;;;;;;;5034885;28;20642;-73
2023/09/24 02:07:08;;;;;;;9.50;4.07;;;;;;;;;;5036056;28;20271;-73
2023/09/24 02:09:35;;;;;;;9.30;3.78;;;;;;;;;;5035548;28;20028;-73
2023/09/24 02:12:00;;;;;;;8.45;3.03;;;;;;;;;;5034704;28;20468;-73
2023/09/24 02:14:25;;;;;;;13.32;3.03;;;;;;;;;;5031240;28;20033;-73
2023/09/24 02:16:51;;;;;;;7.63;3.45;;;;;;;;;;5031348;28;20417;-73
2023/09/24 02:19:17;;;;;;;8.87;3.30;;;;;;;;;;5031032;28;20492;-73
2023/09/24 02:21:42;;;;;;;9.98;3.33;;;;;;;;;;5031116;28;20267;-73
2023/09/24 02:24:09;;;;;;;7.88;3.30;;;;;;;;;;5029437;28;20017;-73
2023/09/24 02:26:35;;;;;;;5.53;3.20;;;;;;;;;;5033179;28;20021;-73
2023/09/24 02:29:00;;;;;;;14.27;3.58;;;;;;;;;;5040275;28;20021;-73
2023/09/24 02:31:26;;;;;;;9.38;3.05;;;;;;;;;;5032322;28;20036;-73
2023/09/24 02:33:51;;;;;;;10.85;3.10;;;;;;;;;;5029616;28;20019;-73
2023/09/24 02:36:16;;;;;;;12.13;3.03;;;;;;;;;;5035799;28;20013;-73
2023/09/24 02:38:43;;;;;;;13.00;3.28;;;;;;;;;;5038857;28;20634;-73
2023/09/24 02:41:08;;;;;;;8.50;2.88;;;;;;;;;;5038445;28;20013;-73
2023/09/24 02:43:34;;;;;;;6.05;3.17;;;;;;;;;;5031931;28;20071;-73
2023/09/24 02:45:59;;;;;;;5.90;3.47;;;;;;;;;;5029968;28;20068;-73
2023/09/24 02:48:24;;;;;;;9.75;2.85;;;;;;;;;;5032849;28;20566;-73
2023/09/24 02:50:50;;;;;;;6.38;2.80;;;;;;;;;;5039447;28;20372;-73
2023/09/24 02:53:16;;;;;;;8.55;3.30;;;;;;;;;;5033346;28;20500;-73
2023/09/24 02:55:41;;;;;;;6.68;2.88;;;;;;;;;;5041099;28;20476;-73
2023/09/24 02:58:06;;;;;;;8.55;2.53;;;;;;;;;;5030284;28;20018;-73
2023/09/24 03:00:36;;;;;;;4.80;2.53;;;;;;;;;;5041544;28;20043;-73
2023/09/24 03:03:03;;;;;;;10.25;3.28;;;;;;;;;;5037512;28;20020;-73
2023/09/24 03:05:29;;;;;;;9.07;3.67;;;;;;;;;;5028000;28;20057;-73
2023/09/24 03:07:55;;;;;;;10.30;3.78;;;;;;;;;;5034066;28;20039;-73
2023/09/24 03:10:21;;;;;;;7.75;2.58;;;;;;;;;;5037434;28;20573;-73
2023/09/24 03:12:47;;;;;;;5.43;2.67;;;;;;;;;;5030539;28;20060;-73
2023/09/24 03:15:12;;;;;;;8.10;2.30;;;;;;;;;;5025740;28;20022;-73
2023/09/24 03:17:38;;;;;;;7.82;3.15;;;;;;;;;;5030339;28;20357;-73
2023/09/24 03:20:14;;;;;;;6.25;2.70;;;;;;;;;;5037627;28;20447;-73
2023/09/24 03:22:39;;;;;;;6.70;2.63;;;;;;;;;;5033070;28;20087;-73
2023/09/24 03:25:04;;;;;;;7.90;2.65;;;;;;;;;;5030914;28;20033;-73
2023/09/24 03:27:31;;;;;;;4.65;2.47;;;;;;;;;;5034700;28;20108;-73
2023/09/24 03:29:56;;;;;;;4.75;2.35;;;;;;;;;;5040310;28;20074;-73
2023/09/24 03:32:21;;;;;;;11.67;2.37;;;;;;;;;;5029600;28;20025;-73
2023/09/24 03:34:46;;;;;;;9.43;2.73;;;;;;;;;;5028742;28;20351;-73
2023/09/24 03:37:14;;;;;;;8.27;2.85;;;;;;;;;;5027780;28;20272;-73
2023/09/24 03:39:39;;;;;;;9.27;3.47;;;;;;;;;;5034620;28;20033;-73
2023/09/24 03:42:04;;;;;;;6.88;2.60;;;;;;;;;;5029604;28;20026;-73
2023/09/24 03:44:29;;;;;;;18.57;3.03;;;;;;;;;;5032902;28;20035;-73
2023/09/24 03:46:54;;;;;;;9.98;2.80;;;;;;;;;;5027585;28;20283;-73
2023/09/24 03:49:19;;;;;;;6.55;2.70;;;;;;;;;;5039594;28;20024;-73
2023/09/24 03:51:45;;;;;;;10.80;2.57;;;;;;;;;;5033032;28;20392;-73
2023/09/24 03:54:11;;;;;;;13.30;2.97;;;;;;;;;;5034711;28;20297;-73
2023/09/24 03:56:36;;;;;;;6.82;2.72;;;;;;;;;;5029616;28;20013;-73
2023/09/24 03:59:02;;;;;;;7.07;2.93;;;;;;;;;;5034002;28;20036;-73
2023/09/24 04:01:27;;;;;;;6.70;2.35;;;;;;;;;;5027967;28;20365;-73
2023/09/24 04:03:52;;;;;;;10.63;3.00;;;;;;;;;;5033654;28;20063;-73
2023/09/24 04:06:17;;;;;;;10.27;2.88;;;;;;;;;;5028017;28;20287;-73
2023/09/24 04:08:43;;;;;;;10.60;2.63;;;;;;;;;;5026949;28;20036;-73
2023/09/24 04:11:11;;;;;;;7.65;2.83;;;;;;;;;;5042254;28;20021;-73
2023/09/24 04:13:38;;;;;;;5.18;2.33;;;;;;;;;;5027650;28;20022;-73
2023/09/24 04:16:12;;;;;;;7.13;2.13;;;;;;;;;;5027977;28;20080;-73
2023/09/24 04:18:37;;;;;;;5.32;2.80;;;;;;;;;;5027354;28;20022;-73
2023/09/24 04:21:02;;;;;;;7.65;2.53;;;;;;;;;;5032059;28;20507;-73
2023/09/24 04:23:28;;;;;;;6.65;3.60;;;;;;;;;;5026174;28;20036;-73
2023/09/24 04:25:54;;;;;;;8.85;3.35;;;;;;;;;;5030859;28;20403;-73
2023/09/24 04:28:19;;;;;;;6.10;3.03;;;;;;;;;;5036604;28;20052;-73
2023/09/24 04:30:45;;;;;;;9.10;3.10;;;;;;;;;;5031260;28;20051;-73
2023/09/24 04:33:10;;;;;;;7.72;2.70;;;;;;;;;;5035221;28;20021;-73
2023/09/24 04:35:35;;;;;;;7.50;2.78;;;;;;;;;;5026818;28;20018;-73
2023/09/24 04:38:01;;;;;;;9.38;2.38;;;;;;;;;;5026195;28;20040;-73
2023/09/24 04:40:27;;;;;;;4.18;2.60;;;;;;;;;;5021132;28;20419;-73
2023/09/24 04:42:52;;;;;;;8.43;2.45;;;;;;;;;;5032141;28;20051;-73
2023/09/24 04:45:20;;;;;;;9.77;3.47;;;;;;;;;;5040059;28;20499;-73
2023/09/24 04:47:46;;;;;;;6.25;2.67;;;;;;;;;;5028521;28;20026;-73
2023/09/24 04:50:14;;;;;;;6.00;2.92;;;;;;;;;;5033141;28;20100;-73
2023/09/24 04:52:41;;;;;;;10.00;3.05;;;;;;;;;;5025047;28;20419;-73
2023/09/24 04:55:07;;;;;;;6.28;3.20;;;;;;;;;;5037692;28;20017;-73
2023/09/24 04:57:32;;;;;;;7.05;2.55;;;;;;;;;;5029206;28;20017;-73
2023/09/24 04:59:57;;;;;;;13.37;3.10;;;;;;;;;;5042193;28;20029;-73
2023/09/24 05:02:23;;;;;;;3.50;2.37;;;;;;;;;;5033359;28;20272;-73
2023/09/24 05:04:49;;;;;;;8.90;3.13;;;;;;;;;;5040320;28;20298;-73
2023/09/24 05:07:14;;;;;;;4.68;2.80;;;;;;;;;;5038571;28;20377;-74
2023/09/24 05:09:40;;;;;;;5.65;2.75;;;;;;;;;;5033295;28;20036;-72
2023/09/24 05:12:05;;;;;;;5.30;2.53;;;;;;;;;;5035822;28;20108;-72
2023/09/24 05:14:30;;;;;;;9.43;3.30;;;;;;;;;;5032879;28;20017;-72
2023/09/24 05:16:55;;;;;;;6.83;2.90;;;;;;;;;;5031745;28;20056;-74
2023/09/24 05:19:21;;;;;;;5.93;2.40;;;;;;;;;;5031408;28;20268;-74
2023/09/24 05:21:46;;;;;;;5.63;2.85;;;;;;;;;;5043696;28;20025;-72
2023/09/24 05:24:12;;;;;;;9.10;2.80;;;;;;;;;;5038313;28;20095;-72
2023/09/24 05:26:37;;;;;;;7.32;2.42;;;;;;;;;;5032756;28;20024;-72
2023/09/24 05:29:03;;;;;;;4.03;2.65;;;;;;;;;;5027607;28;20373;-71
2023/09/24 05:31:28;;;;;;;4.60;2.80;;;;;;;;;;5029540;28;20436;-71
2023/09/24 05:33:53;;;;;;;5.63;2.53;;;;;;;;;;5034426;28;20028;-71
2023/09/24 05:36:19;;;;;;;8.93;2.90;;;;;;;;;;5037306;28;20020;-71
2023/09/24 05:38:44;;;;;;;5.43;3.08;;;;;;;;;;5029880;28;20276;-71
2023/09/24 05:41:10;;;;;;;3.38;2.22;;;;;;;;;;5027333;28;20534;-71
2023/09/24 05:43:35;;;;;;;4.65;2.60;;;;;;;;;;5023880;28;20022;-71
2023/09/24 05:46:04;;;;;;;8.27;2.92;;;;;;;;;;5025491;28;20403;-74
2023/09/24 05:48:29;;;;;;;6.40;2.55;;;;;;;;;;5026975;28;20041;-72
2023/09/24 05:50:54;;;;;;;7.88;3.45;;;;;;;;;;5025787;28;20045;-71
2023/09/24 05:53:19;;;;;;;10.07;2.70;;;;;;;;;;5025507;28;20028;-71
2023/09/24 05:55:52;;;;;;;8.57;2.63;;;;;;;;;;5025162;28;20022;-71
2023/09/24 05:58:17;;;;;;;7.32;2.47;;;;;;;;;;5026134;28;20067;-71
2023/09/24 06:00:44;;;;;;;6.30;2.97;;;;;;;;;;5030222;28;20423;-71
2023/09/24 06:03:09;;;;;;;6.50;2.63;;;;;;;;;;5028101;28;20261;-71
2023/09/24 06:05:38;;;;;;;5.55;2.85;;;;;;;;;;5031787;28;20021;-71
2023/09/24 06:08:04;;;;;;;5.13;2.95;;;;;;;;;;5021652;28;20412;-71
2023/09/24 06:10:30;;;;;;;6.38;2.75;;;;;;;;;;5023856;28;20432;-71
2023/09/24 06:12:55;;;;;;;5.37;3.10;;;;;;;;;;5027648;28;20060;-71
2023/09/24 06:15:20;;;;;;;13.30;2.90;;;;;;;;;;5027614;28;20299;-71
2023/09/24 06:17:47;;;;;;;12.32;3.42;;;;;;;;;;5027959;28;20576;-71
2023/09/24 06:20:12;;;;;;;10.95;2.90;;;;;;;;;;5021412;28;20104;-71
2023/09/24 06:22:37;;;;;;;7.00;3.42;;;;;;;;;;5036193;28;20496;-71
2023/09/24 06:25:03;;;;;;;8.23;3.28;;;;;;;;;;5026104;28;20028;-71
2023/09/24 06:27:29;;;;;;;5.85;3.20;;;;;;;;;;5028606;28;20021;-71
2023/09/24 06:29:54;;;;;;;5.47;3.17;;;;;;;;;;5023609;28;20021;-71
2023/09/24 06:32:19;;;;;;;9.03;3.20;;;;;;;;;;5027083;28;20065;-71
2023/09/24 06:34:44;;;;;;;5.77;2.93;;;;;;;;;;5032003;28;20310;-71
2023/09/24 06:37:09;;;;;;;5.43;2.73;;;;;;;;;;5035468;28;20252;-71
2023/09/24 06:39:35;;;;;;;5.68;2.78;;;;;;;;;;5021029;28;20263;-71
2023/09/24 06:42:00;;;;;;;5.65;2.38;;;;;;;;;;5027031;28;20029;-71
2023/09/24 06:44:26;;;;;;;6.85;3.30;;;;;;;;;;5033797;28;20017;-71
2023/09/24 06:46:51;;;;;;;6.75;2.45;;;;;;;;;;5029692;28;20432;-71
2023/09/24 06:49:16;;;;;;;6.80;1.92;;;;;;;;;;5035034;28;20118;-71
2023/09/24 06:51:41;;;;;;;2.60;1.70;;;;;;;;;;5038072;28;20028;-72
2023/09/24 06:54:06;;;;;;;3.80;1.77;;;;;;;;;;5031421;28;20752;-71
2023/09/24 06:56:32;;;;;;;5.70;2.07;;;;;;;;;;5024586;28;20287;-71
2023/09/24 06:58:57;;;;;;;2.73;1.50;;;;;;;;;;5025057;28;20307;-71
2023/09/24 07:01:22;;;;;;;3.67;1.60;;;;;;;;;;5029051;28;20815;-71
2023/09/24 07:03:48;;;;;;;3.27;1.47;;;;;;;;;;5026184;28;20555;-72
2023/09/24 07:06:15;;;;;;;7.43;1.40;;;;;;;;;;5031096;28;20263;-74
2023/09/24 07:08:40;;;;;;;3.67;1.42;;;;;;;;;;5029179;28;20044;-72
2023/09/24 07:11:22;;;;;;;5.35;1.40;;;;;;;;;;5022737;28;20393;-72
2023/09/24 07:13:47;;;;;;;3.45;1.23;;;;;;;;;;5026571;28;20448;-72
2023/09/24 07:16:13;;;;;;;8.07;1.70;;;;;;;;;;5024633;28;20017;-73
2023/09/24 07:18:38;;;;;;;3.45;1.20;;;;;;;;;;5027222;28;20400;-72
2023/09/24 07:21:04;;;;;;;7.50;1.20;;;;;;;;;;5025794;28;20018;-71
2023/09/24 07:23:29;;;;;;;3.63;1.42;;;;;;;;;;5035181;28;20018;-73
2023/09/24 07:25:54;;;;;;;2.67;1.10;;;;;;;;;;5020847;28;20037;-72
2023/09/24 07:28:24;;;;;;;2.25;1.02;;;;;;;;;;5023884;28;20272;-73
2023/09/24 07:30:49;;;;;;;6.38;1.25;;;;;;;;;;5022616;28;20017;-73
2023/09/24 07:33:14;;;;;;;4.90;1.10;;;;;;;;;;5027669;28;20043;-73
2023/09/24 07:35:39;;;;;;;2.80;1.10;;;;;;;;;;5023050;28;20013;-73
2023/09/24 07:38:05;;;;;;;3.77;1.40;;;;;;;;;;5022016;28;20100;-73
2023/09/24 07:40:30;;;;;;;3.53;0.90;;;;;;;;;;5034723;28;20268;-73
2023/09/24 07:42:55;;;;;;;2.80;0.93;;;;;;;;;;5026451;28;20029;-73
2023/09/24 07:45:20;;;;;;;4.07;0.83;;;;;;;;;;5024587;28;20033;-73
2023/09/24 07:47:45;;;;;;;2.10;1.13;;;;;;;;;;5024321;28;20038;-73
2023/09/24 07:50:11;;;;;;;5.72;1.00;;;;;;;;;;5024471;28;20392;-73
2023/09/24 07:52:36;;;;;;;4.03;1.55;;;;;;;;;;5023315;28;20040;-73
2023/09/24 07:55:01;;;;;;;3.60;1.20;;;;;;;;;;5024000;28;20105;-73
2023/09/24 07:57:27;;;;;;;2.13;0.90;;;;;;;;;;5025780;28;20032;-73
2023/09/24 07:59:54;;;;;;;2.15;1.00;;;;;;;;;;5021739;28;20112;-73
2023/09/24 08:02:19;;;;;;;3.58;0.95;;;;;;;;;;5025505;28;20044;-73
2023/09/24 08:04:45;;;;;;;4.20;0.75;;;;;;;;;;5022833;28;20029;-73
2023/09/24 08:07:10;;;;;;;4.35;0.98;;;;;;;;;;5027457;28;20017;-74
2023/09/24 08:09:38;;;;;;;5.10;1.17;;;;;;;;;;5026889;28;20108;-73
2023/09/24 08:12:03;;;;;;;4.45;1.00;;;;;;;;;;5022341;28;20041;-73
2023/09/24 08:14:28;;;;;;;2.10;0.90;;;;;;;;;;5029430;28;20440;-73
2023/09/24 08:16:53;;;;;;;3.63;1.07;;;;;;;;;;5024217;28;20028;-74
2023/09/24 08:19:19;;;;;;;3.67;1.05;;;;;;;;;;5021210;28;20680;-73
2023/09/24 08:21:44;;;;;;;5.33;0.87;;;;;;;;;;5022564;28;20047;-73
2023/09/24 08:24:09;;;;;;;3.00;0.97;;;;;;;;;;5022881;28;20013;-73
2023/09/24 08:26:36;;;;;;;2.20;0.70;;;;;;;;;;5028310;28;20053;-74
2023/09/24 08:29:05;;;;;;;4.15;0.98;;;;;;;;;;5028847;28;20398;-74
2023/09/24 08:31:31;;;;;;;4.13;1.00;;;;;;;;;;5022282;28;20022;-74
2023/09/24 08:33:56;;;;;;;2.22;0.70;;;;;;;;;;5024510;28;20051;-73
2023/09/24 08:36:21;;;;;;;6.50;1.37;;;;;;;;;;5032599;28;20017;-73
2023/09/24 08:38:46;;;;;;;3.33;1.23;;;;;;;;;;5026466;28;20330;-73
2023/09/24 08:41:12;;;;;;;4.30;0.87;;;;;;;;;;5023828;28;20018;-73
2023/09/24 08:43:38;;;;;;;3.10;0.85;;;;;;;;;;5031268;28;20043;-73
2023/09/24 08:46:03;;;;;;;3.92;0.85;;;;;;;;;;5022760;28;20025;-73
2023/09/24 08:48:29;;;;;;;3.78;0.90;;;;;;;;;;5025208;28;20021;-73
2023/09/24 08:50:54;;;;;;;7.72;0.90;;;;;;;;;;5025255;28;20017;-73
2023/09/24 08:53:21;;;;;;;5.22;0.90;;;;;;;;;;5020596;28;20480;-73
2023/09/24 08:55:46;;;;;;;5.95;1.40;;;;;;;;;;5020873;28;20052;-73
2023/09/24 08:58:12;;;;;;;1.40;0.77;;;;;;;;;;5024745;28;20017;-73
2023/09/24 09:00:38;;;;;;;2.55;1.05;;;;;;;;;;5025919;28;20021;-72
2023/09/24 09:03:04;;;;;;;3.33;0.85;;;;;;;;;;5028618;28;20017;-72
2023/09/24 09:05:29;;;;;;;4.13;1.17;;;;;;;;;;5026718;28;20032;-73
2023/09/24 09:07:59;;;;;;;5.93;0.73;;;;;;;;;;5026071;28;20026;-73
2023/09/24 09:10:25;;;;;;;3.13;0.63;;;;;;;;;;5027034;28;20771;-73
2023/09/24 09:12:51;;;;;;;3.83;0.98;;;;;;;;;;5024813;28;20033;-72
2023/09/24 09:15:17;;;;;;;9.05;0.95;;;;;;;;;;5023193;28;20067;-72
2023/09/24 09:17:42;;;;;;;2.15;1.00;;;;;;;;;;5022026;28;20496;-72
2023/09/24 09:20:07;;;;;;;2.97;0.87;;;;;;;;;;5025686;28;20514;-72
2023/09/24 09:22:35;;;;;;;2.97;0.57;;;;;;;;;;5025345;28;20021;-73
2023/09/24 09:25:02;;;;;;;5.15;1.20;;;;;;;;;;5022861;28;20032;-72
2023/09/24 09:27:34;;;;;;;1.98;0.70;;;;;;;;;;5023591;28;20021;-72
2023/09/24 09:30:15;;;;;;;1.35;0.50;;;;;;;;;;5018124;28;20063;-73
2023/09/24 09:32:41;;;;;;;1.92;0.82;;;;;;;;;;5027963;28;20636;-72
2023/09/24 09:35:07;;;;;;;1.65;0.70;;;;;;;;;;5030600;28;20021;-72
2023/09/24 09:37:32;;;;;;;1.60;0.80;;;;;;;;;;5025943;28;20064;-72
2023/09/24 09:39:57;;;;;;;4.13;1.42;;;;;;;;;;5026254;28;20049;-72
2023/09/24 09:42:24;;;;;;;1.80;0.55;;;;;;;;;;5027674;28;20487;-74
2023/09/24 09:44:51;;;;;;;3.35;1.10;;;;;;;;;;5026767;28;20026;-73
2023/09/24 09:47:17;;;;;;;5.63;1.20;;;;;;;;;;5030768;28;20083;-73
2023/09/24 09:49:47;;;;;;;3.33;0.93;;;;;;;;;;5025698;28;20489;-73
2023/09/24 09:52:15;;;;;;;5.95;1.40;;;;;;;;;;5027620;28;20021;-72
2023/09/24 09:54:41;;;;;;;3.80;0.80;;;;;;;;;;5031167;28;20028;-73
2023/09/24 09:57:06;;;;;;;1.55;0.50;;;;;;;;;;5030011;28;20737;-73
2023/09/24 09:59:34;;;;;;;5.10;0.90;;;;;;;;;;5030487;28;20138;-73
2023/09/24 10:01:59;;;;;;;5.75;0.80;;;;;;;;;;5029749;28;20384;-72
2023/09/24 10:04:25;;;;;;;7.53;0.95;;;;;;;;;;5029020;28;20040;-72
2023/09/24 10:06:51;;;;;;;1.85;0.70;;;;;;;;;;5029921;28;20096;-73
2023/09/24 10:09:31;;;;;;;6.07;0.88;;;;;;;;;;5029902;28;20072;-72
2023/09/24 10:11:56;;;;;;;2.33;0.70;;;;;;;;;;5024834;28;20369;-73
2023/09/24 10:14:42;;;;;;;3.58;0.70;;;;;;;;;;5027011;28;20017;-73
2023/09/24 10:17:16;;;;;;;3.47;1.02;;;;;;;;;;5026574;28;20022;-73
2023/09/24 10:20:06;;;;;;;3.92;0.63;;;;;;;;;;5029165;28;20511;-72
2023/09/24 10:22:38;;;;;;;3.30;0.90;;;;;;;;;;5028964;28;20022;-72
2023/09/24 10:25:26;;;;;;;3.10;0.52;;;;;;;;;;5028870;28;20061;-73
2023/09/24 10:28:05;;;;;;;9.00;1.10;;;;;;;;;;5019446;28;20557;-71
2023/09/24 10:30:50;;;;;;;4.68;1.23;;;;;;;;;;5027045;28;20117;-72
2023/09/24 10:33:15;;;;;;;4.82;0.88;;;;;;;;;;5027004;28;20491;-72
2023/09/24 10:36:00;;;;;;;0.88;0.60;;;;;;;;;;5029913;28;20024;-72
2023/09/24 10:38:26;;;;;;;1.75;0.32;;;;;;;;;;5024555;28;20395;-73
2023/09/24 10:41:04;;;;;;;4.13;0.65;;;;;;;;;;5026178;28;20022;-73
2023/09/24 10:43:29;;;;;;;1.63;0.50;;;;;;;;;;5027092;28;20566;-72
2023/09/24 10:46:14;;;;;;;1.80;0.45;;;;;;;;;;5027412;28;20061;-73
2023/09/24 10:48:43;;;;;;;10.35;0.90;;;;;;;;;;5027432;28;20348;-73
2023/09/24 10:51:09;;;;;;;1.20;0.57;;;;;;;;;;5022975;28;20671;-73
2023/09/24 10:53:34;;;;;;;5.80;1.33;;;;;;;;;;5026984;28;20822;-73
2023/09/24 10:55:59;;;;;;;2.77;0.93;;;;;;;;;;5026403;28;20117;-73
2023/09/24 10:58:24;;;;;;;3.43;0.80;;;;;;;;;;5025454;28;20018;-72
2023/09/24 11:00:50;;;;;;;4.27;1.30;;;;;;;;;;5027148;28;20268;-72
2023/09/24 11:03:16;;;;;;;1.63;0.40;;;;;;;;;;5028257;28;20314;-72
2023/09/24 11:05:41;;;;;;;1.80;1.03;;;;;;;;;;5028409;28;20049;-72
2023/09/24 11:08:06;;;;;;;1.97;0.77;;;;;;;;;;5026417;28;20272;-73
2023/09/24 11:10:31;;;;;;;1.70;0.40;;;;;;;;;;5028863;28;20040;-73
2023/09/24 11:13:00;;;;;;;1.90;0.60;;;;;;;;;;5026703;28;20105;-72
2023/09/24 11:15:27;;;;;;;2.60;0.95;;;;;;;;;;5028998;28;20832;-72
2023/09/24 11:17:52;;;;;;;8.57;1.30;;;;;;;;;;5027625;28;20068;-72
2023/09/24 11:20:20;;;;;;;7.22;0.80;;;;;;;;;;5027847;28;20017;-73
2023/09/24 11:22:54;;;;;;;3.40;0.40;;;;;;;;;;5027631;28;20025;-73
2023/09/24 11:25:19;;;;;;;1.10;0.43;;;;;;;;;;5026817;28;20116;-72
2023/09/24 11:27:48;;;;;;;2.80;0.80;;;;;;;;;;5025377;28;20132;-72
2023/09/24 11:30:15;;;;;;;2.65;0.40;;;;;;;;;;5025847;28;20029;-72
2023/09/24 11:32:40;;;;;;;1.33;0.57;;;;;;;;;;5026227;28;20453;-73
2023/09/24 11:35:06;;;;;;;5.18;1.23;;;;;;;;;;5027831;28;20112;-72
2023/09/24 11:37:50;;;;;;;2.53;0.52;;;;;;;;;;5027513;28;20075;-72
2023/09/24 11:40:25;;;;;;;1.38;0.68;;;;;;;;;;5024798;28;20018;-73
2023/09/24 11:42:52;;;;;;;7.10;0.93;;;;;;;;;;5026052;28;20029;-73
2023/09/24 11:45:33;;;;;;;4.82;0.73;;;;;;;;;;5026650;28;20030;-73
2023/09/24 11:47:58;;;;;;;3.60;0.77;;;;;;;;;;5023587;28;20040;-72
2023/09/24 11:50:23;;;;;;;4.77;1.00;;;;;;;;;;5027811;28;20500;-72
2023/09/24 11:52:49;;;;;;;2.93;0.50;;;;;;;;;;5024889;28;20033;-72
2023/09/24 11:55:14;;;;;;;2.45;0.60;;;;;;;;;;5020243;28;20271;-72
2023/09/24 11:57:39;;;;;;;4.13;0.85;;;;;;;;;;5026078;28;20056;-73
2023/09/24 12:00:05;;;;;;;2.33;0.70;;;;;;;;;;5026857;28;20025;-73
2023/09/24 12:02:30;;;;;;;2.88;1.27;;;;;;;;;;5027896;28;20272;-73
2023/09/24 12:04:55;;;;;;;4.33;0.87;;;;;;;;;;5020195;28;20064;-73
2023/09/24 12:07:20;;;;;;;1.67;0.83;;;;;;;;;;5020747;28;20025;-73
2023/09/24 12:09:45;;;;;;;2.70;0.90;;;;;;;;;;5020330;28;20427;-73
2023/09/24 12:12:11;;;;;;;1.17;0.40;;;;;;;;;;5020277;28;20037;-73
2023/09/24 12:14:36;;;;;;;4.97;0.90;;;;;;;;;;5023078;28;20300;-73
2023/09/24 12:17:01;;;;;;;2.63;0.80;;;;;;;;;;5019905;28;20044;-73
2023/09/24 12:19:26;;;;;;;2.53;0.80;;;;;;;;;;5020966;28;20028;-73
2023/09/24 12:21:51;;;;;;;1.35;0.57;;;;;;;;;;5018528;28;20377;-73
2023/09/24 12:24:17;;;;;;;4.17;0.60;;;;;;;;;;5021310;28;20697;-73
2023/09/24 12:26:42;;;;;;;3.45;0.68;;;;;;;;;;5018678;28;20280;-73
2023/09/24 12:29:07;;;;;;;4.13;0.90;;;;;;;;;;5019057;28;20480;-73
2023/09/24 12:31:34;;;;;;;4.70;0.80;;;;;;;;;;5023827;28;20033;-74
2023/09/24 12:33:59;;;;;;;0.93;0.50;;;;;;;;;;5022636;28;20473;-73
2023/09/24 12:36:24;;;;;;;3.50;0.77;;;;;;;;;;5020370;28;20040;-73
2023/09/24 12:38:50;;;;;;;4.67;1.30;;;;;;;;;;5022686;28;20370;-73
2023/09/24 12:41:15;;;;;;;2.63;0.47;;;;;;;;;;5018677;28;20283;-73
2023/09/24 12:43:40;;;;;;;2.22;0.90;;;;;;;;;;5019499;28;20268;-73
2023/09/24 12:46:06;;;;;;;2.83;0.70;;;;;;;;;;5022204;28;20030;-73
2023/09/24 12:48:34;;;;;;;0.50;0.25;;;;;;;;;;5021373;28;20268;-73
2023/09/24 12:51:00;;;;;;;1.60;0.68;;;;;;;;;;5019850;28;20029;-73
2023/09/24 12:53:25;;;;;;;3.03;0.80;;;;;;;;;;5021671;28;20094;-73
2023/09/24 12:55:50;;;;;;;1.37;0.37;;;;;;;;;;5022633;28;20747;-73
2023/09/24 12:58:15;;;;;;;7.93;0.60;;;;;;;;;;5020544;28;20021;-74
2023/09/24 13:00:40;;;;;;;0.87;0.30;;;;;;;;;;5019477;28;20363;-72
2023/09/24 13:03:05;;;;;;;1.20;0.47;;;;;;;;;;5019546;28;20025;-73
2023/09/24 13:05:32;;;;;;;1.40;0.63;;;;;;;;;;5020672;28;20295;-72
2023/09/24 13:07:57;;;;;;;3.28;0.65;;;;;;;;;;5021314;28;20068;-73
2023/09/24 13:10:23;;;;;;;1.97;0.60;;;;;;;;;;5023475;28;20436;-73
2023/09/24 13:12:48;;;;;;;1.00;0.63;;;;;;;;;;5022692;28;20284;-72
2023/09/24 13:15:13;;;;;;;4.82;0.90;;;;;;;;;;5020277;28;20041;-74
2023/09/24 13:17:39;;;;;;;4.07;0.60;;;;;;;;;;5022441;28;20021;-73
2023/09/24 13:20:05;;;;;;;6.38;0.60;;;;;;;;;;5024145;28;20071;-73
2023/09/24 13:22:30;;;;;;;4.88;0.93;;;;;;;;;;5026073;28;20381;-73
2023/09/24 13:24:56;;;;;;;2.17;0.80;;;;;;;;;;5024261;28;20063;-73
2023/09/24 13:27:21;;;;;;;0.98;0.52;;;;;;;;;;5025294;28;20025;-73
2023/09/24 13:29:46;;;;;;;2.78;0.70;;;;;;;;;;5026095;28;20057;-73
2023/09/24 13:32:12;;;;;;;2.90;0.77;;;;;;;;;;5023767;28;20061;-73
2023/09/24 13:34:37;;;;;;;2.13;0.80;;;;;;;;;;5024544;28;20363;-74
2023/09/24 13:37:02;;;;;;;4.37;0.70;;;;;;;;;;5023881;28;20029;-73
2023/09/24 13:39:27;;;;;;;1.90;0.80;;;;;;;;;;5029589;28;20638;-74
2023/09/24 13:41:53;;;;;;;1.90;0.47;;;;;;;;;;5030580;28;20029;-74
2023/09/24 13:44:18;;;;;;;2.60;0.73;;;;;;;;;;5032422;28;20291;-74
2023/09/24 13:46:43;;;;;;;1.15;0.60;;;;;;;;;;5031615;28;20248;-74
2023/09/24 13:49:08;;;;;;;0.97;0.40;;;;;;;;;;5031365;28;20033;-74
2023/09/24 13:51:35;;;;;;;2.63;0.83;;;;;;;;;;5031176;28;20029;-74
2023/09/24 13:54:00;;;;;;;1.88;0.50;;;;;;;;;;5031500;28;20743;-74
2023/09/24 13:56:25;;;;;;;2.22;0.50;;;;;;;;;;5030767;28;20029;-73
2023/09/24 13:58:51;;;;;;;4.07;0.60;;;;;;;;;;5031107;28;20396;-73
2023/09/24 14:01:16;;;;;;;1.45;0.50;;;;;;;;;;5034522;28;20037;-73
2023/09/24 14:03:41;;;;;;;1.13;0.53;;;;;;;;;;5031687;28;20457;-73
2023/09/24 14:06:06;;;;;;;2.30;0.60;;;;;;;;;;5030809;28;20024;-73
2023/09/24 14:14:06;;;;;;;2.13;0.50;;;;;;;;;;5031010;28;20067;-73
2023/09/24 14:16:32;;;;;;;8.60;0.57;;;;;;;;;;5030903;28;20480;-73
2023/09/24 14:18:57;;;;;;;1.20;0.50;;;;;;;;;;5029718;28;20018;-72
2023/09/24 14:21:22;;;;;;;1.92;0.73;;;;;;;;;;5031770;28;20013;-73
2023/09/24 14:23:47;;;;;;;2.50;0.50;;;;;;;;;;5030932;28;20022;-73
2023/09/24 14:26:12;;;;;;;1.30;0.47;;;;;;;;;;5030967;28;20260;-73
2023/09/24 14:28:38;;;;;;;2.03;0.47;;;;;;;;;;5029767;28;20256;-73
2023/09/24 14:31:03;;;;;;;7.13;0.50;;;;;;;;;;5030380;28;20104;-73
2023/09/24 14:33:29;;;;;;;1.00;0.50;;;;;;;;;;5028385;28;20076;-74
2023/09/24 14:35:58;;;;;;;2.03;0.50;;;;;;;;;;5029644;28;20109;-73
2023/09/24 14:38:23;;;;;;;0.82;0.30;;;;;;;;;;5030322;28;20264;-74
2023/09/24 14:40:49;;;;;;;3.95;0.75;;;;;;;;;;5031627;28;20021;-74